Terminal Aerodrome Forecast
Issued by NWS Atlanta, GA

Home | Current Version | Previous Version | Text Only | Print | Product List | Glossary On
Versions: 1 2 3 4 5 6 7 8 9 10 11 12 13 14 15 16 17 18 19 20
000
FTUS42 KFFC 110500
TAFCSG
TAF
KCSG 110529Z 1106/1206 00000KT P6SM SCT200
     FM110900 23003KT 5SM BR SCT007
     FM111200 18003KT P6SM SCT025
     FM111600 22003KT P6SM VCSH BKN035 PROB30 1118/1122 5SM TSRA BR
      BKN035CB
     FM112300 05004KT P6SM SCT050
     FM120300 12004KT P6SM FEW250=

USA.gov is the U.S. government's official web portal to all federal, state and local government web resources and services.